createdAt,value
2018-10-19T00:00:06.272Z,12.90
2018-10-19T00:02:34.841Z,12.90
2018-10-19T00:05:03.592Z,12.90
2018-10-19T00:07:32.101Z,12.80
2018-10-19T00:10:00.668Z,12.80
2018-10-19T00:12:29.221Z,12.70
2018-10-19T00:14:57.964Z,12.70
2018-10-19T00:17:26.561Z,12.60
2018-10-19T00:19:55.182Z,12.60
2018-10-19T00:22:23.720Z,12.50
2018-10-19T00:24:52.332Z,12.50
2018-10-19T00:27:20.897Z,12.40
2018-10-19T00:29:49.509Z,12.40
2018-10-19T00:32:18.162Z,12.50
2018-10-19T00:34:46.741Z,12.40
2018-10-19T00:37:15.361Z,12.40
2018-10-19T00:39:43.956Z,12.30
2018-10-19T00:42:12.555Z,12.30
2018-10-19T00:44:41.498Z,12.20
2018-10-19T00:47:10.151Z,12.10
2018-10-19T00:49:38.699Z,12.00
2018-10-19T00:52:07.308Z,12.00
2018-10-19T00:54:35.870Z,11.90
2018-10-19T00:57:04.545Z,11.90
2018-10-19T00:59:33.120Z,11.90
2018-10-19T01:02:01.708Z,11.80
2018-10-19T01:04:30.344Z,11.80
2018-10-19T01:06:58.985Z,11.70
2018-10-19T01:09:27.565Z,11.60
2018-10-19T01:11:56.112Z,11.70
2018-10-19T01:14:24.736Z,11.70
2018-10-19T01:16:53.292Z,11.70
2018-10-19T01:19:21.881Z,11.60
2018-10-19T01:21:50.484Z,11.50
2018-10-19T01:24:19.097Z,11.50
2018-10-19T01:26:47.702Z,11.40
2018-10-19T01:29:16.344Z,11.50
2018-10-19T01:31:44.924Z,11.30
2018-10-19T01:34:13.506Z,11.30
2018-10-19T01:36:42.223Z,11.20
2018-10-19T01:39:11.720Z,11.20
2018-10-19T01:41:41.273Z,11.10
2018-10-19T01:44:10.538Z,11.10
2018-10-19T01:46:43.323Z,11.20
2018-10-19T01:49:11.938Z,11.10
2018-10-19T01:51:40.488Z,11.10
2018-10-19T01:54:09.159Z,11.10
2018-10-19T01:56:37.735Z,11.10
2018-10-19T01:59:06.840Z,11.00
2018-10-19T02:01:35.408Z,11.00
2018-10-19T02:04:04.071Z,11.00
2018-10-19T02:06:32.624Z,10.80
2018-10-19T02:09:01.228Z,10.80
2018-10-19T02:11:29.867Z,10.80
2018-10-19T02:13:58.429Z,10.80
2018-10-19T02:16:27.014Z,10.70
2018-10-19T02:18:55.580Z,10.70
2018-10-19T02:21:24.492Z,10.70
2018-10-19T02:23:53.044Z,10.70
2018-10-19T02:26:21.607Z,10.60
2018-10-19T02:28:50.155Z,10.60
2018-10-19T02:31:18.746Z,10.70
2018-10-19T02:33:47.319Z,10.70
2018-10-19T02:36:15.955Z,10.60
2018-10-19T02:38:44.543Z,10.50
2018-10-19T02:41:13.301Z,10.50
2018-10-19T02:43:41.731Z,10.50
2018-10-19T02:46:10.332Z,10.50
2018-10-19T02:48:39.295Z,10.30
2018-10-19T02:51:07.965Z,10.30
2018-10-19T02:53:36.526Z,10.40
2018-10-19T02:56:05.405Z,10.20
2018-10-19T02:58:33.936Z,10.30
2018-10-19T03:01:02.514Z,10.20
2018-10-19T03:03:31.089Z,10.10
2018-10-19T03:05:59.693Z,10.10
2018-10-19T03:08:28.259Z,10.20
2018-10-19T03:10:56.901Z,10.10
2018-10-19T03:13:25.467Z,10.20
2018-10-19T03:15:54.047Z,10.10
2018-10-19T03:18:27.646Z,10.10
2018-10-19T03:20:56.402Z,9.90
2018-10-19T03:23:24.961Z,9.90
2018-10-19T03:25:53.595Z,9.90
2018-10-19T03:28:22.155Z,9.80
2018-10-19T03:30:50.793Z,9.90
2018-10-19T03:33:19.464Z,9.90
2018-10-19T03:35:48.050Z,9.80
2018-10-19T03:38:16.629Z,9.70
2018-10-19T03:40:45.200Z,9.70
2018-10-19T03:43:13.793Z,9.70
2018-10-19T03:45:42.392Z,9.80
2018-10-19T03:48:10.984Z,9.70
2018-10-19T03:50:40.118Z,9.70
2018-10-19T03:53:09.695Z,9.60
2018-10-19T03:55:38.344Z,9.60
2018-10-19T03:58:06.924Z,9.60
2018-10-19T04:00:35.683Z,9.50
2018-10-19T04:03:04.456Z,9.50
2018-10-19T04:05:33.049Z,9.50
2018-10-19T04:08:01.620Z,9.60
2018-10-19T04:10:30.204Z,9.50
2018-10-19T04:12:58.805Z,9.50
2018-10-19T04:15:27.764Z,9.40
2018-10-19T04:17:56.445Z,9.40
2018-10-19T04:20:25.004Z,9.40
2018-10-19T04:22:57.660Z,9.40
2018-10-19T04:25:26.260Z,9.40
2018-10-19T04:27:54.848Z,9.30
2018-10-19T04:30:23.487Z,9.30
2018-10-19T04:32:52.116Z,9.20
2018-10-19T04:35:20.911Z,9.10
2018-10-19T04:37:49.513Z,9.10
2018-10-19T04:40:19.783Z,9.20
2018-10-19T04:42:48.432Z,9.20
2018-10-19T04:45:17.731Z,9.20
2018-10-19T04:47:46.400Z,9.20
2018-10-19T04:50:14.960Z,9.10
2018-10-19T04:52:43.560Z,9.10
2018-10-19T04:55:16.752Z,9.10
2018-10-19T04:57:45.375Z,9.10
2018-10-19T05:00:14.736Z,9.00
2018-10-19T05:02:43.478Z,9.00
2018-10-19T05:05:12.107Z,9.00
2018-10-19T05:07:40.684Z,9.00
2018-10-19T05:10:09.976Z,9.00
2018-10-19T05:12:38.663Z,9.10
2018-10-19T05:15:08.606Z,9.00
2018-10-19T05:17:37.175Z,8.90
2018-10-19T05:20:07.356Z,9.00
2018-10-19T05:22:35.980Z,9.00
2018-10-19T05:25:05.833Z,8.90
2018-10-19T05:27:34.461Z,8.90
2018-10-19T05:30:03.078Z,8.90
2018-10-19T05:32:31.667Z,8.90
2018-10-19T05:35:01.580Z,8.90
2018-10-19T05:37:31.103Z,8.90
2018-10-19T05:40:00.069Z,8.80
2018-10-19T05:42:30.650Z,8.70
2018-10-19T05:44:59.272Z,8.80
2018-10-19T05:47:28.875Z,8.80
2018-10-19T05:49:57.894Z,8.90
2018-10-19T05:52:26.678Z,8.80
2018-10-19T05:54:57.104Z,8.80
2018-10-19T05:57:25.744Z,8.80
2018-10-19T05:59:54.412Z,8.80
2018-10-19T06:02:23.183Z,8.80
2018-10-19T06:04:51.593Z,8.80
2018-10-19T06:07:20.157Z,8.80
2018-10-19T06:09:48.700Z,8.80
2018-10-19T06:12:17.460Z,8.80
2018-10-19T06:14:47.276Z,8.80
2018-10-19T06:17:15.898Z,8.80
2018-10-19T06:19:44.452Z,8.70
2018-10-19T06:22:13.205Z,8.80
2018-10-19T06:24:42.151Z,8.90
2018-10-19T06:27:10.724Z,8.80
2018-10-19T06:29:39.264Z,8.90
2018-10-19T06:32:07.917Z,8.90
2018-10-19T06:34:36.408Z,8.90
2018-10-19T06:37:05.296Z,8.90
2018-10-19T06:39:33.841Z,9.00
2018-10-19T06:42:02.548Z,8.90
2018-10-19T06:44:31.119Z,9.00
2018-10-19T06:47:00.050Z,9.10
2018-10-19T06:49:28.568Z,9.00
2018-10-19T06:51:57.194Z,9.00
2018-10-19T06:54:25.735Z,9.10
2018-10-19T06:56:54.291Z,9.20
2018-10-19T06:59:22.941Z,9.20
2018-10-19T07:01:51.459Z,9.30
2018-10-19T07:04:19.991Z,9.40
2018-10-19T07:06:48.609Z,9.60
2018-10-19T07:09:18.591Z,9.80
2018-10-19T07:11:47.213Z,10.10
2018-10-19T07:14:18.454Z,10.40
2018-10-19T07:16:46.968Z,10.90
2018-10-19T07:19:15.757Z,11.30
2018-10-19T07:21:44.369Z,11.70
2018-10-19T07:24:12.900Z,12.10
2018-10-19T07:26:41.441Z,12.30
2018-10-19T07:29:10.061Z,12.70
2018-10-19T07:31:38.555Z,13.10
2018-10-19T07:34:09.766Z,13.40
2018-10-19T07:36:38.505Z,13.80
2018-10-19T07:39:08.560Z,14.30
2018-10-19T07:41:37.240Z,14.60
2018-10-19T07:44:06.161Z,15.10
2018-10-19T07:46:34.913Z,15.50
2018-10-19T07:49:03.508Z,15.90
2018-10-19T07:51:32.075Z,16.30
2018-10-19T07:54:00.899Z,16.80
2018-10-19T07:56:29.432Z,17.10
2018-10-19T07:58:58.002Z,17.50
2018-10-19T08:01:26.548Z,17.60
2018-10-19T08:03:55.120Z,18.00
2018-10-19T08:06:23.684Z,18.20
2018-10-19T08:08:52.239Z,18.40
2018-10-19T08:11:20.807Z,18.60
2018-10-19T08:13:49.373Z,18.90
2018-10-19T08:16:17.913Z,19.00
2018-10-19T08:18:46.484Z,19.40
2018-10-19T08:21:15.090Z,19.70
2018-10-19T08:23:43.696Z,20.00
2018-10-19T08:26:12.353Z,20.20
2018-10-19T08:28:40.823Z,20.40
2018-10-19T08:31:09.355Z,20.70
2018-10-19T08:33:37.905Z,20.90
2018-10-19T08:36:06.440Z,21.20
2018-10-19T08:38:35.028Z,21.30
2018-10-19T08:41:03.622Z,21.20
2018-10-19T08:43:32.168Z,21.40
2018-10-19T08:46:06.001Z,21.90
2018-10-19T08:48:34.666Z,21.90
2018-10-19T08:51:08.688Z,22.40
2018-10-19T08:53:37.442Z,22.60
2018-10-19T08:56:06.185Z,22.90
2018-10-19T08:58:34.735Z,23.10
2018-10-19T09:01:04.252Z,23.40
2018-10-19T09:03:32.887Z,23.80
2018-10-19T09:06:01.455Z,24.10
2018-10-19T09:08:30.041Z,24.00
2018-10-19T09:10:58.685Z,24.30
2018-10-19T09:13:27.233Z,24.60
2018-10-19T09:15:55.806Z,24.80
2018-10-19T09:18:24.369Z,24.90
2018-10-19T09:20:52.981Z,25.40
2018-10-19T09:23:21.529Z,25.40
2018-10-19T09:25:51.737Z,25.50
2018-10-19T09:28:20.287Z,26.00
2018-10-19T09:30:49.049Z,26.00
2018-10-19T09:33:17.622Z,25.60
2018-10-19T09:35:46.284Z,26.20
2018-10-19T09:38:14.782Z,25.80
2018-10-19T09:40:43.414Z,26.30
2018-10-19T09:43:12.050Z,27.00
2018-10-19T09:45:40.580Z,26.80
2018-10-19T09:48:09.279Z,26.90
2018-10-19T09:50:37.928Z,27.20
2018-10-19T09:53:06.555Z,27.80
2018-10-19T09:55:35.096Z,27.90
2018-10-19T09:58:03.704Z,27.40
2018-10-19T10:00:37.439Z,27.80
2018-10-19T10:03:06.092Z,28.10
2018-10-19T10:05:34.629Z,27.60
2018-10-19T10:08:03.244Z,27.60
2018-10-19T10:10:31.887Z,27.90
2018-10-19T10:13:01.665Z,28.40
2018-10-19T10:15:30.274Z,28.40
2018-10-19T10:17:58.802Z,28.60
2018-10-19T10:20:27.361Z,28.90
2018-10-19T10:22:55.929Z,28.90
2018-10-19T10:25:24.812Z,28.50
2018-10-19T10:27:53.313Z,28.70
2018-10-19T10:30:21.924Z,29.00
2018-10-19T10:32:50.491Z,28.70
2018-10-19T10:35:19.060Z,28.90
2018-10-19T10:37:47.604Z,29.20
2018-10-19T10:40:16.237Z,29.20
2018-10-19T10:42:44.791Z,29.40
2018-10-19T10:45:13.352Z,29.30
2018-10-19T10:47:41.969Z,29.10
2018-10-19T10:50:10.556Z,29.00
2018-10-19T10:52:39.322Z,29.40
2018-10-19T10:55:08.086Z,29.20
2018-10-19T10:57:36.572Z,28.30
2018-10-19T11:00:05.637Z,28.80
2018-10-19T11:02:34.193Z,28.80
2018-10-19T11:05:02.891Z,28.60
2018-10-19T11:07:31.580Z,28.30
2018-10-19T11:10:00.035Z,28.00
2018-10-19T11:12:28.588Z,27.30
2018-10-19T11:14:57.148Z,26.90
2018-10-19T11:17:25.678Z,26.80
2018-10-19T11:19:54.233Z,26.60
2018-10-19T11:22:22.788Z,26.10
2018-10-19T11:24:51.344Z,25.90
2018-10-19T11:27:19.886Z,25.80
2018-10-19T11:29:48.461Z,25.50
2018-10-19T11:32:16.991Z,25.20
2018-10-19T11:34:45.597Z,24.70
2018-10-19T11:37:14.558Z,24.20
2018-10-19T11:39:54.279Z,24.10
2018-10-19T11:42:22.846Z,24.20
2018-10-19T11:44:51.539Z,24.10
2018-10-19T11:47:20.117Z,23.90
2018-10-19T11:49:48.768Z,23.70
2018-10-19T11:52:17.617Z,23.50
2018-10-19T11:54:46.161Z,23.50
2018-10-19T11:57:15.058Z,23.30
2018-10-19T11:59:43.570Z,23.10
2018-10-19T12:02:12.121Z,23.30
2018-10-19T12:04:40.688Z,23.30
2018-10-19T12:07:09.264Z,23.20
2018-10-19T12:09:37.867Z,23.10
2018-10-19T12:12:06.648Z,23.20
2018-10-19T12:14:35.214Z,23.10
2018-10-19T12:17:03.834Z,22.90
2018-10-19T12:19:32.353Z,22.80
2018-10-19T12:22:00.893Z,22.70
2018-10-19T12:24:29.753Z,22.80
2018-10-19T12:26:58.406Z,22.70
2018-10-19T12:29:27.003Z,22.70
2018-10-19T12:31:55.535Z,22.70
2018-10-19T12:34:24.110Z,22.50
2018-10-19T12:36:52.983Z,22.50
2018-10-19T12:39:22.838Z,22.40
2018-10-19T12:41:51.683Z,22.30
2018-10-19T12:44:20.242Z,22.20
2018-10-19T12:47:00.073Z,22.30
2018-10-19T12:49:28.674Z,22.40
2018-10-19T12:51:57.223Z,22.40
2018-10-19T12:54:25.865Z,22.40
2018-10-19T12:56:54.425Z,22.40
2018-10-19T12:59:22.975Z,22.40
2018-10-19T13:01:51.520Z,22.50
2018-10-19T13:04:20.077Z,22.50
2018-10-19T13:06:48.624Z,22.40
2018-10-19T13:09:17.320Z,22.30
2018-10-19T13:11:45.748Z,22.10
2018-10-19T13:14:14.315Z,22.00
2018-10-19T13:16:42.859Z,21.90
2018-10-19T13:19:11.471Z,21.70
2018-10-19T13:21:39.993Z,21.80
2018-10-19T13:24:08.863Z,21.80
2018-10-19T13:26:37.592Z,21.70
2018-10-19T13:29:06.615Z,21.60
2018-10-19T13:31:35.160Z,21.40
2018-10-19T13:34:03.714Z,21.50
2018-10-19T13:36:32.293Z,21.50
2018-10-19T13:39:00.876Z,21.40
2018-10-19T13:41:29.430Z,21.40
2018-10-19T13:43:58.014Z,21.30
2018-10-19T13:46:26.575Z,21.40
2018-10-19T13:48:55.157Z,21.20
2018-10-19T13:51:23.716Z,21.30
2018-10-19T13:53:52.259Z,21.20
2018-10-19T13:56:20.834Z,21.20
2018-10-19T13:58:49.384Z,21.00
2018-10-19T14:01:17.953Z,20.90
2018-10-19T14:03:46.500Z,20.90
2018-10-19T14:06:15.064Z,20.80
2018-10-19T14:08:43.588Z,20.70
2018-10-19T14:11:12.226Z,20.70
2018-10-19T14:13:40.963Z,20.60
2018-10-19T14:16:09.648Z,20.60
2018-10-19T14:18:38.283Z,20.50
2018-10-19T14:21:06.931Z,20.50
2018-10-19T14:23:35.616Z,20.40
2018-10-19T14:26:04.388Z,20.30
2018-10-19T14:28:32.940Z,20.30
2018-10-19T14:31:01.505Z,20.20
2018-10-19T14:33:30.500Z,20.20
2018-10-19T14:35:58.888Z,20.10
2018-10-19T14:38:27.432Z,20.10
2018-10-19T14:40:56.015Z,20.00
2018-10-19T14:43:24.562Z,20.00
2018-10-19T14:45:53.119Z,20.00
2018-10-19T14:48:21.680Z,19.80
2018-10-19T14:50:50.245Z,19.80
2018-10-19T14:53:18.817Z,19.80
2018-10-19T14:55:47.400Z,19.80
2018-10-19T14:58:15.941Z,19.80
2018-10-19T15:00:44.508Z,19.70
2018-10-19T15:03:13.105Z,19.60
2018-10-19T15:05:41.645Z,19.60
2018-10-19T15:08:10.534Z,19.60
2018-10-19T15:10:39.364Z,19.50
2018-10-19T15:13:07.768Z,19.50
2018-10-19T15:15:36.360Z,19.50
2018-10-19T15:18:05.467Z,19.40
2018-10-19T15:20:34.041Z,19.40
2018-10-19T15:23:02.596Z,19.40
2018-10-19T15:25:31.163Z,19.40
2018-10-19T15:27:59.707Z,19.20
2018-10-19T15:30:28.261Z,19.20
2018-10-19T15:32:56.834Z,19.20
2018-10-19T15:35:25.595Z,19.20
2018-10-19T15:37:54.179Z,19.10
2018-10-19T15:40:22.741Z,19.10
2018-10-19T15:42:51.295Z,19.00
2018-10-19T15:45:19.851Z,19.10
2018-10-19T15:47:48.414Z,19.00
2018-10-19T15:50:16.983Z,19.00
2018-10-19T15:52:45.553Z,18.90
2018-10-19T15:55:14.133Z,18.80
2018-10-19T15:57:42.704Z,18.70
2018-10-19T16:00:11.374Z,18.70
2018-10-19T16:02:39.929Z,18.60
2018-10-19T16:05:08.592Z,18.60
2018-10-19T16:07:37.167Z,18.50
2018-10-19T16:10:06.957Z,18.50
2018-10-19T16:12:35.530Z,18.40
2018-10-19T16:15:04.265Z,18.30
2018-10-19T16:17:32.777Z,18.30
2018-10-19T16:20:01.372Z,18.30
2018-10-19T16:22:30.137Z,18.30
2018-10-19T16:24:58.712Z,18.20
2018-10-19T16:27:27.327Z,18.10
2018-10-19T16:29:55.877Z,18.00
2018-10-19T16:32:24.426Z,18.00
2018-10-19T16:34:53.015Z,17.90
2018-10-19T16:37:21.536Z,17.90
2018-10-19T16:39:50.314Z,17.80
2018-10-19T16:42:18.901Z,17.70
2018-10-19T16:44:47.437Z,17.60
2018-10-19T16:47:16.033Z,17.60
2018-10-19T16:49:44.607Z,17.60
2018-10-19T16:52:14.406Z,17.50
2018-10-19T16:54:42.987Z,17.40
2018-10-19T16:57:11.612Z,17.40
2018-10-19T16:59:40.153Z,17.30
2018-10-19T17:02:08.732Z,17.30
2018-10-19T17:04:37.316Z,17.20
2018-10-19T17:07:06.168Z,17.10
2018-10-19T17:09:34.709Z,17.10
2018-10-19T17:12:03.293Z,16.70
2018-10-19T17:14:31.889Z,16.70
2018-10-19T17:17:00.447Z,16.50
2018-10-19T17:19:29.010Z,16.40
2018-10-19T17:21:57.622Z,16.30
2018-10-19T17:24:26.253Z,16.10
2018-10-19T17:26:54.799Z,16.10
2018-10-19T17:29:23.356Z,15.90
2018-10-19T17:31:51.920Z,15.70
2018-10-19T17:34:20.515Z,15.60
2018-10-19T17:36:49.088Z,15.60
2018-10-19T17:39:17.664Z,15.50
2018-10-19T17:41:46.214Z,15.40
2018-10-19T17:44:14.770Z,15.30
2018-10-19T17:46:43.444Z,15.20
2018-10-19T17:49:12.105Z,15.00
2018-10-19T17:51:40.636Z,14.90
2018-10-19T17:54:09.261Z,14.60
2018-10-19T17:56:37.757Z,14.50
2018-10-19T17:59:10.449Z,14.30
2018-10-19T18:01:38.948Z,14.40
2018-10-19T18:04:07.919Z,14.50
2018-10-19T18:06:36.553Z,14.40
2018-10-19T18:09:08.831Z,14.20
2018-10-19T18:11:37.877Z,14.20
2018-10-19T18:14:06.461Z,14.10
2018-10-19T18:16:35.091Z,14.20
2018-10-19T18:19:03.707Z,14.20
2018-10-19T18:21:32.317Z,14.10
2018-10-19T18:24:01.016Z,14.10
2018-10-19T18:26:29.584Z,13.90
2018-10-19T18:28:58.213Z,13.80
2018-10-19T18:31:26.831Z,13.70
2018-10-19T18:33:55.660Z,13.70
2018-10-19T18:36:24.204Z,13.70
2018-10-19T18:38:52.924Z,13.70
2018-10-19T18:41:21.513Z,13.70
2018-10-19T18:43:50.288Z,13.60
2018-10-19T18:46:19.175Z,13.60
2018-10-19T18:48:48.353Z,13.50
2018-10-19T18:51:16.960Z,13.50
2018-10-19T18:53:45.901Z,13.40
2018-10-19T18:56:14.539Z,13.40
2018-10-19T18:58:43.750Z,13.40
2018-10-19T19:01:12.297Z,13.40
2018-10-19T19:03:40.858Z,13.30
2018-10-19T19:06:09.391Z,13.20
2018-10-19T19:08:37.969Z,13.20
2018-10-19T19:11:06.568Z,13.20
2018-10-19T19:13:39.299Z,13.00
2018-10-19T19:16:38.223Z,13.00
2018-10-19T19:19:06.910Z,13.00
2018-10-19T19:21:35.579Z,12.90
2018-10-19T19:24:09.436Z,12.90
2018-10-19T19:26:38.006Z,12.90
2018-10-19T19:29:06.714Z,12.90
2018-10-19T19:31:35.257Z,12.90
2018-10-19T19:34:09.351Z,12.90
2018-10-19T19:36:37.900Z,12.70
2018-10-19T19:39:09.643Z,12.60
2018-10-19T19:41:43.475Z,12.70
2018-10-19T19:44:12.071Z,12.60
2018-10-19T19:46:40.587Z,12.60
2018-10-19T19:49:14.347Z,12.50
2018-10-19T19:51:42.888Z,12.50
2018-10-19T19:54:11.461Z,12.50
2018-10-19T19:56:39.992Z,12.40
2018-10-19T19:59:08.607Z,12.40
2018-10-19T20:01:37.116Z,12.50
2018-10-19T20:04:05.749Z,12.50
2018-10-19T20:06:34.316Z,12.30
2018-10-19T20:09:03.160Z,12.20
2018-10-19T20:11:32.433Z,12.20
2018-10-19T20:14:01.058Z,12.20
2018-10-19T20:16:29.621Z,12.20
2018-10-19T20:18:58.177Z,12.10
2018-10-19T20:21:26.750Z,12.00
2018-10-19T20:23:55.600Z,12.10
2018-10-19T20:26:24.223Z,12.20
2018-10-19T20:28:52.759Z,12.10
2018-10-19T20:31:21.371Z,12.10
2018-10-19T20:33:49.907Z,12.10
2018-10-19T20:36:18.455Z,12.00
2018-10-19T20:38:46.996Z,11.90
2018-10-19T20:41:15.601Z,11.90
2018-10-19T20:43:44.111Z,11.90
2018-10-19T20:46:12.753Z,11.80
2018-10-19T20:48:41.311Z,11.80
2018-10-19T20:51:09.914Z,11.70
2018-10-19T20:53:38.499Z,11.70
2018-10-19T20:56:07.117Z,11.70
2018-10-19T20:58:36.126Z,11.70
2018-10-19T21:01:04.704Z,11.70
2018-10-19T21:03:33.240Z,11.60
2018-10-19T21:06:02.042Z,11.60
2018-10-19T21:08:30.572Z,11.50
2018-10-19T21:10:59.160Z,11.50
2018-10-19T21:13:27.754Z,11.40
2018-10-19T21:15:56.277Z,11.50
2018-10-19T21:18:24.808Z,11.50
2018-10-19T21:20:53.364Z,11.50
2018-10-19T21:23:21.896Z,11.50
2018-10-19T21:25:50.467Z,11.50
2018-10-19T21:28:19.025Z,11.40
2018-10-19T21:30:47.598Z,11.40
2018-10-19T21:33:16.144Z,11.40
2018-10-19T21:35:44.704Z,11.30
2018-10-19T21:38:13.441Z,11.30
2018-10-19T21:40:41.981Z,11.30
2018-10-19T21:43:10.517Z,11.20
2018-10-19T21:45:39.067Z,11.20
2018-10-19T21:48:07.627Z,11.20
2018-10-19T21:50:36.172Z,11.00
2018-10-19T21:53:05.147Z,11.10
2018-10-19T21:55:33.686Z,11.10
2018-10-19T21:58:02.231Z,11.00
2018-10-19T22:00:30.824Z,11.10
2018-10-19T22:02:59.364Z,11.00
2018-10-19T22:05:27.891Z,11.00
2018-10-19T22:07:56.532Z,11.00
2018-10-19T22:10:25.033Z,10.90
2018-10-19T22:12:53.613Z,10.90
2018-10-19T22:15:22.157Z,10.90
2018-10-19T22:17:51.562Z,10.90
2018-10-19T22:20:20.101Z,10.70
2018-10-19T22:22:48.680Z,10.70
2018-10-19T22:25:17.327Z,10.70
2018-10-19T22:27:45.830Z,10.70
2018-10-19T22:30:14.633Z,10.60
2018-10-19T22:32:43.192Z,10.70
2018-10-19T22:35:11.799Z,10.70
2018-10-19T22:37:40.341Z,10.70
2018-10-19T22:40:08.894Z,10.70
2018-10-19T22:42:37.448Z,10.70
2018-10-19T22:45:06.372Z,10.70
2018-10-19T22:47:34.992Z,10.70
2018-10-19T22:50:03.616Z,10.70
2018-10-19T22:52:32.261Z,10.70
2018-10-19T22:55:00.830Z,10.70
2018-10-19T22:57:29.376Z,10.70
2018-10-19T22:59:57.936Z,10.60
2018-10-19T23:02:26.774Z,10.60
2018-10-19T23:04:55.362Z,10.60
2018-10-19T23:07:23.891Z,10.50
2018-10-19T23:09:52.424Z,10.50
2018-10-19T23:12:20.984Z,10.50
2018-10-19T23:14:49.540Z,10.50
2018-10-19T23:17:18.105Z,10.50
2018-10-19T23:19:46.641Z,10.50
2018-10-19T23:22:15.218Z,10.30
2018-10-19T23:24:44.107Z,10.30
2018-10-19T23:27:12.688Z,10.30
2018-10-19T23:29:41.226Z,10.40
2018-10-19T23:32:09.788Z,10.40
2018-10-19T23:34:38.384Z,10.40
2018-10-19T23:37:06.972Z,10.30
2018-10-19T23:39:35.496Z,10.30
2018-10-19T23:42:04.172Z,10.30
2018-10-19T23:44:32.733Z,10.30
2018-10-19T23:47:01.338Z,10.30
2018-10-19T23:49:29.893Z,10.30
2018-10-19T23:51:58.420Z,10.30
2018-10-19T23:54:26.981Z,10.20
2018-10-19T23:56:55.522Z,10.10
2018-10-19T23:59:24.076Z,10.10
